createdAt,value
2019-01-14T00:00:59.854Z,35.97
2019-01-14T00:03:27.431Z,26.73
2019-01-14T00:05:55.019Z,30.60
2019-01-14T00:08:22.615Z,31.20
2019-01-14T00:10:50.056Z,32.03
2019-01-14T00:13:17.476Z,30.80
2019-01-14T00:15:45.024Z,42.67
2019-01-14T00:18:12.791Z,34.53
2019-01-14T00:20:40.406Z,50.20
2019-01-14T00:23:07.887Z,52.17
2019-01-14T00:25:35.473Z,56.03
2019-01-14T00:28:02.943Z,54.40
2019-01-14T00:30:30.521Z,57.93
2019-01-14T00:32:57.960Z,57.17
2019-01-14T00:35:25.418Z,58.33
2019-01-14T00:37:52.997Z,57.93
2019-01-14T00:40:20.418Z,54.73
2019-01-14T00:42:47.972Z,59.30
2019-01-14T00:45:15.554Z,59.93
2019-01-14T00:47:43.090Z,58.33
2019-01-14T00:50:12.485Z,64.20
2019-01-14T00:52:40.257Z,61.43
2019-01-14T00:55:08.374Z,60.20
2019-01-14T00:57:35.856Z,50.03
2019-01-14T01:00:07.805Z,54.93
2019-01-14T01:02:35.368Z,54.80
2019-01-14T01:05:03.470Z,54.70
2019-01-14T01:07:31.002Z,44.80
2019-01-14T01:09:58.520Z,42.40
2019-01-14T01:12:26.204Z,45.53
2019-01-14T01:14:53.666Z,46.83
2019-01-14T01:17:21.136Z,53.10
2019-01-14T01:19:48.759Z,64.23
2019-01-14T01:22:16.310Z,64.50
2019-01-14T01:24:43.840Z,53.20
2019-01-14T01:27:11.330Z,50.97
2019-01-14T01:29:38.845Z,63.63
2019-01-14T01:32:06.363Z,49.60
2019-01-14T01:34:33.862Z,35.33
2019-01-14T01:37:01.412Z,47.77
2019-01-14T01:39:28.983Z,41.30
2019-01-14T01:41:56.407Z,34.10
2019-01-14T01:44:24.010Z,38.30
2019-01-14T01:46:51.689Z,30.80
2019-01-14T01:49:19.180Z,23.00
2019-01-14T01:51:46.638Z,22.63
2019-01-14T01:54:14.231Z,24.73
2019-01-14T01:56:41.746Z,23.87
2019-01-14T01:59:09.270Z,29.40
2019-01-14T02:01:36.735Z,21.00
2019-01-14T02:04:04.495Z,25.33
2019-01-14T02:06:39.000Z,24.30
2019-01-14T02:09:01.587Z,23.60
2019-01-14T02:11:29.090Z,22.20
2019-01-14T02:13:56.981Z,21.23
2019-01-14T02:16:24.599Z,21.50
2019-01-14T02:18:52.146Z,22.03
2019-01-14T02:21:19.799Z,19.77
2019-01-14T02:23:47.390Z,22.47
2019-01-14T02:26:14.983Z,21.23
2019-01-14T02:28:42.467Z,19.20
2019-01-14T02:31:10.360Z,20.23
2019-01-14T02:33:37.830Z,18.47
2019-01-14T02:36:05.518Z,20.00
2019-01-14T02:38:33.116Z,20.57
2019-01-14T02:41:00.530Z,22.50
2019-01-14T02:43:28.077Z,23.23
2019-01-14T02:45:55.492Z,23.97
2019-01-14T02:48:23.019Z,26.03
2019-01-14T02:50:50.615Z,24.33
2019-01-14T02:53:18.099Z,24.53
2019-01-14T02:55:45.760Z,24.80
2019-01-14T02:58:13.318Z,24.77
2019-01-14T03:00:40.905Z,20.90
2019-01-14T03:03:08.491Z,22.70
2019-01-14T03:05:36.090Z,24.57
2019-01-14T03:08:03.776Z,27.30
2019-01-14T03:10:31.210Z,26.90
2019-01-14T03:12:58.626Z,23.20
2019-01-14T03:15:26.152Z,25.43
2019-01-14T03:17:53.804Z,23.50
2019-01-14T03:20:21.475Z,24.37
2019-01-14T03:22:49.088Z,28.73
2019-01-14T03:25:16.746Z,30.23
2019-01-14T03:27:44.443Z,32.07
2019-01-14T03:30:14.924Z,29.50
2019-01-14T03:32:42.406Z,28.43
2019-01-14T03:35:10.640Z,25.67
2019-01-14T03:37:38.200Z,25.97
2019-01-14T03:40:08.678Z,27.83
2019-01-14T03:42:36.173Z,25.40
2019-01-14T03:45:04.344Z,26.73
2019-01-14T03:47:31.817Z,25.87
2019-01-14T03:49:59.430Z,23.53
2019-01-14T03:52:27.002Z,25.13
2019-01-14T03:54:54.491Z,25.50
2019-01-14T03:57:22.211Z,25.50
2019-01-14T03:59:49.667Z,23.23
2019-01-14T04:02:17.175Z,25.43
2019-01-14T04:04:44.759Z,23.43
2019-01-14T04:07:13.789Z,27.87
2019-01-14T04:09:41.694Z,27.17
2019-01-14T04:12:09.200Z,23.70
2019-01-14T04:14:36.817Z,32.20
2019-01-14T04:17:04.253Z,26.17
2019-01-14T04:19:31.868Z,25.80
2019-01-14T04:21:59.477Z,26.87
2019-01-14T04:24:26.970Z,28.40
2019-01-14T04:26:54.458Z,24.73
2019-01-14T04:29:22.047Z,23.13
2019-01-14T04:31:49.555Z,25.50
2019-01-14T04:34:17.012Z,21.37
2019-01-14T04:36:44.569Z,27.93
2019-01-14T04:39:12.422Z,23.43
2019-01-14T04:41:39.878Z,26.87
2019-01-14T04:44:07.459Z,21.70
2019-01-14T04:46:34.958Z,20.90
2019-01-14T04:49:02.467Z,23.07
2019-01-14T04:51:29.962Z,20.50
2019-01-14T04:53:57.473Z,18.40
2019-01-14T04:56:25.037Z,24.80
2019-01-14T04:58:52.555Z,20.53
2019-01-14T05:01:20.038Z,19.03
2019-01-14T05:03:47.551Z,21.03
2019-01-14T05:06:15.524Z,17.43
2019-01-14T05:08:43.304Z,20.33
2019-01-14T05:11:10.881Z,21.63
2019-01-14T05:13:38.467Z,17.17
2019-01-14T05:16:05.868Z,18.23
2019-01-14T05:18:33.362Z,18.83
2019-01-14T05:21:00.899Z,15.90
2019-01-14T05:23:28.571Z,15.70
2019-01-14T05:25:56.176Z,16.80
2019-01-14T05:28:23.770Z,16.60
2019-01-14T05:30:51.355Z,20.20
2019-01-14T05:33:19.050Z,19.20
2019-01-14T05:35:46.573Z,20.77
2019-01-14T05:38:14.154Z,18.00
2019-01-14T05:40:41.549Z,20.07
2019-01-14T05:43:09.059Z,20.03
2019-01-14T05:45:36.720Z,19.73
2019-01-14T05:48:04.461Z,17.53
2019-01-14T05:50:32.638Z,17.90
2019-01-14T05:53:00.169Z,16.90
2019-01-14T05:55:27.571Z,18.83
2019-01-14T05:57:55.058Z,20.03
2019-01-14T06:00:26.379Z,18.47
2019-01-14T06:02:54.743Z,17.63
2019-01-14T06:05:22.788Z,18.37
2019-01-14T06:07:50.819Z,18.73
2019-01-14T06:10:18.522Z,20.33
2019-01-14T06:12:46.034Z,22.23
2019-01-14T06:15:14.870Z,28.07
2019-01-14T06:17:42.446Z,36.37
2019-01-14T06:20:11.848Z,37.07
2019-01-14T06:22:39.357Z,38.00
2019-01-14T06:25:08.548Z,46.83
2019-01-14T06:27:36.196Z,39.90
2019-01-14T06:30:07.133Z,48.40
2019-01-14T06:32:34.686Z,50.97
2019-01-14T06:35:02.174Z,48.23
2019-01-14T06:37:29.656Z,48.60
2019-01-14T06:39:57.287Z,45.43
2019-01-14T06:42:24.910Z,43.17
2019-01-14T06:44:52.793Z,37.87
2019-01-14T06:47:21.357Z,38.10
2019-01-14T06:49:48.970Z,45.70
2019-01-14T06:52:16.476Z,38.50
2019-01-14T06:54:43.964Z,28.57
2019-01-14T06:57:11.606Z,41.50
2019-01-14T06:59:39.314Z,40.67
2019-01-14T07:02:06.957Z,41.00
2019-01-14T07:04:34.529Z,37.70
2019-01-14T07:07:02.235Z,52.00
2019-01-14T07:09:30.130Z,52.73
2019-01-14T07:11:58.016Z,51.60
2019-01-14T07:14:25.684Z,47.63
2019-01-14T07:16:53.320Z,47.30
2019-01-14T07:19:20.815Z,47.80
2019-01-14T07:21:48.944Z,48.23
2019-01-14T07:24:16.691Z,48.67
2019-01-14T07:26:44.481Z,44.50
2019-01-14T07:29:11.911Z,40.87
2019-01-14T07:31:39.586Z,26.17
2019-01-14T07:34:07.306Z,27.97
2019-01-14T07:36:34.896Z,26.27
2019-01-14T07:39:04.479Z,28.53
2019-01-14T07:41:31.946Z,28.83
2019-01-14T07:43:59.539Z,37.93
2019-01-14T07:46:27.030Z,49.30
2019-01-14T07:48:54.626Z,46.57
2019-01-14T07:51:22.256Z,47.97
2019-01-14T07:53:49.978Z,32.20
2019-01-14T07:56:17.872Z,46.87
2019-01-14T07:58:45.948Z,26.53
2019-01-14T08:01:13.805Z,22.73
2019-01-14T08:03:41.239Z,21.30
2019-01-14T08:06:08.762Z,20.87
2019-01-14T08:08:36.311Z,23.07
2019-01-14T08:11:03.851Z,24.23
2019-01-14T08:13:31.463Z,31.97
2019-01-14T08:15:59.017Z,27.10
2019-01-14T08:18:26.423Z,26.13
2019-01-14T08:20:54.173Z,24.77
2019-01-14T08:23:21.699Z,27.40
2019-01-14T08:25:49.388Z,24.93
2019-01-14T08:28:16.926Z,22.97
2019-01-14T08:30:44.447Z,24.13
2019-01-14T08:33:11.981Z,26.50
2019-01-14T08:35:39.702Z,31.20
2019-01-14T08:38:07.452Z,26.80
2019-01-14T08:40:35.226Z,25.27
2019-01-14T08:43:02.795Z,24.43
2019-01-14T08:45:30.261Z,23.17
2019-01-14T08:47:57.853Z,23.60
2019-01-14T08:50:25.670Z,23.27
2019-01-14T08:52:53.452Z,24.10
2019-01-14T08:55:21.226Z,28.03
2019-01-14T08:57:54.457Z,27.67
2019-01-14T09:00:20.596Z,29.80
2019-01-14T09:02:48.158Z,31.90
2019-01-14T09:05:16.087Z,30.90
2019-01-14T09:07:43.873Z,32.73
2019-01-14T09:10:14.647Z,24.93
2019-01-14T09:12:42.173Z,28.30
2019-01-14T09:15:11.251Z,29.23
2019-01-14T09:17:38.964Z,28.30
2019-01-14T09:20:10.764Z,29.93
2019-01-14T09:22:38.720Z,29.07
2019-01-14T09:25:06.653Z,31.50
2019-01-14T09:27:34.240Z,32.23
2019-01-14T09:30:01.792Z,27.27
2019-01-14T09:32:29.272Z,35.55
2019-01-14T09:34:56.696Z,36.20
2019-01-14T09:37:24.364Z,36.87
2019-01-14T09:39:52.042Z,30.07
2019-01-14T09:42:19.733Z,30.67
2019-01-14T09:44:47.343Z,30.23
2019-01-14T09:47:15.190Z,31.20
2019-01-14T09:49:45.590Z,32.70
2019-01-14T09:52:12.417Z,34.80
2019-01-14T09:54:39.905Z,32.90
2019-01-14T09:57:07.522Z,40.93
2019-01-14T09:59:35.178Z,41.57
2019-01-14T10:02:02.797Z,43.70
2019-01-14T10:04:30.358Z,41.57
2019-01-14T10:06:57.927Z,41.73
2019-01-14T10:09:25.415Z,45.20
2019-01-14T10:11:52.934Z,40.07
2019-01-14T10:14:20.756Z,39.07
2019-01-14T10:16:48.615Z,40.77
2019-01-14T10:19:16.384Z,40.53
2019-01-14T10:21:43.915Z,39.13
2019-01-14T10:24:11.622Z,39.07
2019-01-14T10:26:39.230Z,41.13
2019-01-14T10:29:06.907Z,37.00
2019-01-14T10:31:34.524Z,35.10
2019-01-14T10:34:02.000Z,37.43
2019-01-14T10:36:29.667Z,37.30
2019-01-14T10:38:57.081Z,35.67
2019-01-14T10:41:24.648Z,37.93
2019-01-14T10:43:52.175Z,34.50
2019-01-14T10:46:19.816Z,34.20
2019-01-14T10:48:47.408Z,28.53
2019-01-14T10:51:15.155Z,29.47
2019-01-14T10:53:42.749Z,30.87
2019-01-14T10:56:10.608Z,32.53
2019-01-14T10:58:38.097Z,30.00
2019-01-14T11:01:05.785Z,30.10
2019-01-14T11:03:33.427Z,29.87
2019-01-14T11:06:01.283Z,28.50
2019-01-14T11:08:29.537Z,27.57
2019-01-14T11:10:57.015Z,25.03
2019-01-14T11:13:24.635Z,27.60
2019-01-14T11:15:52.070Z,28.47
2019-01-14T11:18:19.599Z,25.97
2019-01-14T11:20:47.392Z,26.57
2019-01-14T11:23:14.951Z,28.90
2019-01-14T11:25:42.618Z,25.77
2019-01-14T11:28:10.216Z,28.87
2019-01-14T11:30:37.846Z,30.33
2019-01-14T11:33:05.575Z,25.67
2019-01-14T11:35:35.136Z,25.17
2019-01-14T11:38:02.962Z,30.83
2019-01-14T11:40:38.921Z,27.93
2019-01-14T11:43:06.907Z,25.30
2019-01-14T11:45:34.514Z,23.17
2019-01-14T11:48:02.496Z,23.23
2019-01-14T11:50:30.077Z,25.03
2019-01-14T11:52:57.534Z,18.87
2019-01-14T11:55:25.194Z,22.93
2019-01-14T11:57:52.645Z,24.50
2019-01-14T12:00:22.523Z,21.07
2019-01-14T12:02:50.062Z,20.63
2019-01-14T12:05:17.716Z,19.40
2019-01-14T12:07:45.410Z,17.67
2019-01-14T12:10:13.193Z,16.17
2019-01-14T12:12:40.726Z,15.67
2019-01-14T12:15:15.297Z,18.70
2019-01-14T12:17:42.906Z,22.43
2019-01-14T12:20:12.320Z,22.97
2019-01-14T12:22:40.080Z,20.33
2019-01-14T12:25:08.564Z,20.67
2019-01-14T12:27:36.487Z,21.80
2019-01-14T12:30:09.307Z,21.13
2019-01-14T12:32:36.829Z,22.57
2019-01-14T12:35:04.937Z,22.37
2019-01-14T12:37:32.675Z,23.13
2019-01-14T12:40:00.233Z,20.73
2019-01-14T12:42:27.738Z,22.97
2019-01-14T12:44:55.354Z,21.93
2019-01-14T12:47:22.959Z,24.70
2019-01-14T12:49:50.482Z,21.77
2019-01-14T12:52:17.930Z,22.73
2019-01-14T12:54:45.512Z,22.23
2019-01-14T12:57:13.028Z,22.17
2019-01-14T12:59:40.412Z,24.80
2019-01-14T13:02:08.041Z,24.63
2019-01-14T13:04:35.711Z,20.73
2019-01-14T13:07:03.283Z,22.83
2019-01-14T13:09:30.954Z,23.27
2019-01-14T13:11:58.689Z,24.00
2019-01-14T13:14:26.243Z,23.53
2019-01-14T13:16:54.136Z,23.37
2019-01-14T13:19:21.840Z,24.67
2019-01-14T13:21:49.383Z,25.83
2019-01-14T13:24:16.967Z,23.97
2019-01-14T13:26:44.615Z,25.67
2019-01-14T13:29:15.267Z,25.57
2019-01-14T13:31:41.922Z,24.17
2019-01-14T13:34:09.814Z,25.23
2019-01-14T13:36:37.882Z,24.70
2019-01-14T13:39:08.540Z,25.10
2019-01-14T13:41:36.056Z,28.90
2019-01-14T13:44:03.918Z,26.73
2019-01-14T13:46:31.546Z,25.13
2019-01-14T13:48:59.054Z,30.60
2019-01-14T13:51:26.711Z,23.63
2019-01-14T13:53:54.287Z,18.13
2019-01-14T13:56:22.121Z,21.13
2019-01-14T13:58:49.651Z,19.60
2019-01-14T14:01:17.285Z,19.40
2019-01-14T14:03:44.883Z,16.97
2019-01-14T14:06:12.554Z,15.97
2019-01-14T14:08:40.661Z,15.90
2019-01-14T14:11:08.545Z,16.13
2019-01-14T14:13:35.970Z,17.37
2019-01-14T14:16:03.657Z,17.23
2019-01-14T14:18:31.146Z,19.67
2019-01-14T14:20:58.745Z,18.20
2019-01-14T14:23:26.184Z,20.63
2019-01-14T14:25:54.065Z,18.67
2019-01-14T14:28:21.639Z,18.33
2019-01-14T14:30:49.335Z,19.27
2019-01-14T14:33:16.887Z,17.13
2019-01-14T14:35:44.310Z,17.47
2019-01-14T14:38:12.486Z,18.00
2019-01-14T14:40:39.973Z,18.03
2019-01-14T14:43:07.395Z,17.03
2019-01-14T14:45:35.050Z,18.03
2019-01-14T14:48:02.795Z,19.83
2019-01-14T14:50:30.494Z,21.83
2019-01-14T14:52:58.107Z,21.40
2019-01-14T14:55:26.663Z,20.23
2019-01-14T14:57:54.399Z,27.43
2019-01-14T15:00:22.686Z,32.50
2019-01-14T15:02:50.506Z,30.57
2019-01-14T15:05:18.380Z,26.97
2019-01-14T15:07:46.197Z,29.37
2019-01-14T15:10:15.549Z,28.47
2019-01-14T15:12:43.226Z,24.40
2019-01-14T15:15:12.500Z,24.23
2019-01-14T15:17:40.163Z,20.07
2019-01-14T15:20:10.756Z,22.17
2019-01-14T15:22:38.302Z,18.93
2019-01-14T15:25:05.902Z,22.13
2019-01-14T15:27:33.456Z,18.77
2019-01-14T15:30:00.985Z,21.67
2019-01-14T15:32:28.584Z,22.27
2019-01-14T15:34:56.037Z,20.43
2019-01-14T15:37:24.025Z,18.40
2019-01-14T15:39:51.606Z,17.43
2019-01-14T15:42:20.177Z,19.47
2019-01-14T15:44:47.667Z,21.10
2019-01-14T15:47:15.207Z,17.60
2019-01-14T15:49:42.960Z,19.03
2019-01-14T15:52:10.587Z,17.57
2019-01-14T15:54:38.134Z,16.37
2019-01-14T15:57:06.000Z,18.30
2019-01-14T15:59:33.594Z,16.63
2019-01-14T16:02:01.714Z,17.83
2019-01-14T16:04:29.333Z,14.93
2019-01-14T16:06:56.954Z,17.17
2019-01-14T16:09:24.550Z,12.87
2019-01-14T16:11:52.173Z,13.60
2019-01-14T16:14:19.754Z,14.93
2019-01-14T16:16:47.374Z,16.43
2019-01-14T16:19:14.938Z,22.00
2019-01-14T16:21:42.524Z,35.17
2019-01-14T16:24:10.255Z,35.77
2019-01-14T16:26:37.864Z,30.27
2019-01-14T16:29:05.907Z,37.77
2019-01-14T16:31:33.428Z,50.57
2019-01-14T16:34:01.100Z,44.40
2019-01-14T16:36:28.639Z,42.10
2019-01-14T16:38:56.254Z,42.03
2019-01-14T16:41:23.708Z,44.33
2019-01-14T16:43:51.323Z,38.87
2019-01-14T16:46:18.819Z,41.90
2019-01-14T16:48:46.335Z,27.00
2019-01-14T16:51:14.009Z,36.63
2019-01-14T16:53:41.645Z,34.00
2019-01-14T16:56:09.154Z,34.10
2019-01-14T16:58:36.741Z,35.97
2019-01-14T17:01:04.363Z,35.87
2019-01-14T17:03:31.779Z,31.97
2019-01-14T17:05:59.415Z,24.87
2019-01-14T17:08:26.948Z,27.13
2019-01-14T17:10:54.657Z,33.23
2019-01-14T17:13:22.190Z,32.20
2019-01-14T17:15:49.753Z,27.30
2019-01-14T17:18:17.331Z,31.90
2019-01-14T17:20:44.817Z,30.37
2019-01-14T17:23:12.240Z,29.50
2019-01-14T17:25:39.753Z,33.73
2019-01-14T17:28:07.393Z,30.40
2019-01-14T17:30:34.957Z,26.33
2019-01-14T17:33:02.700Z,30.47
2019-01-14T17:35:30.249Z,29.07
2019-01-14T17:37:57.909Z,36.83
2019-01-14T17:40:32.305Z,36.80
2019-01-14T17:42:56.334Z,23.73
2019-01-14T17:45:23.940Z,27.47
2019-01-14T17:47:52.765Z,31.57
2019-01-14T17:50:20.382Z,29.30
2019-01-14T17:52:47.896Z,28.43
2019-01-14T17:55:15.572Z,28.47
2019-01-14T17:57:42.954Z,23.70
2019-01-14T18:00:16.292Z,24.47
2019-01-14T18:02:43.896Z,26.40
2019-01-14T18:05:11.929Z,25.87
2019-01-14T18:07:46.962Z,29.90
2019-01-14T18:10:15.667Z,30.90
2019-01-14T18:12:43.452Z,32.10
2019-01-14T18:15:11.177Z,35.33
2019-01-14T18:17:38.826Z,36.23
2019-01-14T18:20:08.377Z,36.10
2019-01-14T18:22:36.056Z,34.00
2019-01-14T18:25:04.734Z,36.30
2019-01-14T18:27:32.238Z,35.30
2019-01-14T18:29:59.706Z,37.13
2019-01-14T18:32:27.176Z,36.13
2019-01-14T18:34:55.039Z,41.30
2019-01-14T18:37:22.974Z,42.67
2019-01-14T18:39:50.876Z,38.53
2019-01-14T18:42:18.511Z,45.80
2019-01-14T18:44:47.228Z,42.33
2019-01-14T18:47:14.979Z,40.97
2019-01-14T18:49:42.490Z,42.47
2019-01-14T18:52:09.975Z,38.77
2019-01-14T18:54:37.528Z,38.97
2019-01-14T18:57:05.100Z,38.47
2019-01-14T18:59:32.667Z,39.73
2019-01-14T19:02:00.328Z,36.63
2019-01-14T19:04:27.940Z,31.60
2019-01-14T19:06:55.735Z,34.73
2019-01-14T19:09:23.604Z,34.70
2019-01-14T19:11:51.501Z,36.37
2019-01-14T19:14:19.408Z,35.77
2019-01-14T19:16:47.246Z,33.00
2019-01-14T19:19:15.049Z,33.83
2019-01-14T19:21:43.030Z,31.23
2019-01-14T19:24:10.753Z,35.23
2019-01-14T19:26:38.330Z,34.90
2019-01-14T19:29:06.009Z,29.57
2019-01-14T19:31:33.738Z,28.33
2019-01-14T19:34:01.233Z,25.47
2019-01-14T19:36:28.935Z,21.10
2019-01-14T19:38:56.426Z,15.27
2019-01-14T19:41:23.914Z,14.03
2019-01-14T19:43:51.431Z,14.63
2019-01-14T19:46:19.225Z,11.13
2019-01-14T19:48:46.848Z,10.07
2019-01-14T19:51:15.059Z,10.43
2019-01-14T19:53:42.927Z,9.87
2019-01-14T19:56:10.745Z,7.43
2019-01-14T19:58:38.411Z,7.50
2019-01-14T20:01:06.053Z,7.57
2019-01-14T20:03:33.656Z,7.53
2019-01-14T20:06:02.110Z,7.07
2019-01-14T20:08:29.862Z,6.43
2019-01-14T20:10:57.534Z,6.67
2019-01-14T20:13:25.119Z,6.73
2019-01-14T20:15:52.804Z,7.00
2019-01-14T20:18:20.260Z,6.20
2019-01-14T20:20:47.864Z,6.37
2019-01-14T20:23:15.384Z,5.23
2019-01-14T20:25:42.843Z,4.97
2019-01-14T20:28:10.499Z,4.90
2019-01-14T20:30:38.065Z,5.17
2019-01-14T20:33:06.344Z,5.37
2019-01-14T20:35:34.164Z,5.10
2019-01-14T20:38:01.723Z,5.80
2019-01-14T20:40:29.528Z,5.73
2019-01-14T20:42:57.625Z,6.37
2019-01-14T20:45:25.726Z,5.97
2019-01-14T20:47:53.580Z,5.97
2019-01-14T20:50:21.631Z,6.27
2019-01-14T20:52:49.611Z,6.57
2019-01-14T20:55:17.235Z,6.43
2019-01-14T20:57:45.121Z,6.43
2019-01-14T21:00:24.837Z,7.10
2019-01-14T21:02:52.880Z,8.30
2019-01-14T21:05:21.955Z,7.43
2019-01-14T21:07:49.550Z,6.93
2019-01-14T21:10:17.636Z,6.60
2019-01-14T21:12:45.142Z,5.83
2019-01-14T21:15:13.287Z,6.33
2019-01-14T21:17:40.925Z,6.53
2019-01-14T21:20:18.058Z,5.97
2019-01-14T21:22:45.680Z,6.90
2019-01-14T21:25:13.607Z,6.70
2019-01-14T21:27:41.146Z,6.13
2019-01-14T21:30:12.044Z,6.20
2019-01-14T21:32:40.829Z,6.63
2019-01-14T21:35:10.705Z,6.50
2019-01-14T21:37:38.381Z,6.00
2019-01-14T21:40:07.873Z,5.77
2019-01-14T21:42:35.373Z,5.87
2019-01-14T21:45:03.776Z,5.60
2019-01-14T21:47:32.744Z,5.03
2019-01-14T21:50:00.583Z,5.57
2019-01-14T21:52:28.154Z,5.13
2019-01-14T21:54:55.675Z,4.93
2019-01-14T21:57:23.237Z,4.10
2019-01-14T21:59:50.761Z,5.13
2019-01-14T22:02:18.403Z,4.67
2019-01-14T22:04:45.934Z,4.63
2019-01-14T22:07:13.555Z,4.03
2019-01-14T22:09:41.133Z,3.47
2019-01-14T22:12:08.775Z,4.50
2019-01-14T22:14:36.174Z,4.00
2019-01-14T22:17:03.886Z,3.90
2019-01-14T22:19:31.489Z,3.13
2019-01-14T22:21:58.902Z,3.80
2019-01-14T22:24:26.495Z,3.33
2019-01-14T22:26:55.121Z,4.07
2019-01-14T22:29:22.725Z,3.60
2019-01-14T22:31:50.198Z,3.60
2019-01-14T22:34:17.678Z,3.67
2019-01-14T22:36:45.202Z,4.07
2019-01-14T22:39:12.736Z,3.67
2019-01-14T22:41:45.669Z,3.37
2019-01-14T22:44:09.670Z,3.47
2019-01-14T22:46:37.206Z,4.00
2019-01-14T22:49:04.838Z,3.50
2019-01-14T22:51:32.315Z,3.57
2019-01-14T22:53:59.841Z,3.40
2019-01-14T22:56:27.311Z,3.00
2019-01-14T22:58:54.999Z,3.37
2019-01-14T23:01:34.740Z,3.13
2019-01-14T23:04:02.279Z,3.57
2019-01-14T23:06:29.846Z,2.97
2019-01-14T23:08:57.641Z,3.47
2019-01-14T23:11:25.229Z,3.30
2019-01-14T23:13:52.714Z,3.53
2019-01-14T23:16:20.233Z,3.13
2019-01-14T23:18:47.684Z,2.73
2019-01-14T23:21:15.274Z,2.50
2019-01-14T23:23:42.852Z,2.60
2019-01-14T23:26:10.344Z,2.67
2019-01-14T23:28:37.797Z,2.80
2019-01-14T23:31:05.339Z,2.20
2019-01-14T23:33:32.862Z,2.97
2019-01-14T23:36:00.346Z,2.50
2019-01-14T23:38:27.918Z,3.03
2019-01-14T23:40:55.431Z,2.80
2019-01-14T23:43:23.060Z,3.10
2019-01-14T23:45:50.637Z,3.03
2019-01-14T23:48:18.191Z,3.53
2019-01-14T23:50:45.668Z,3.67
2019-01-14T23:53:13.215Z,3.60
2019-01-14T23:55:40.762Z,3.40
2019-01-14T23:58:08.270Z,3.17
